AirNav   TITAN Aviation Fuels
 
 884 users online  

KGDM Gardner Municipal Airport
Gardner, Massachusetts, USA

GOING TO GARDNER?


FAA INFORMATION EFFECTIVE 15 JULY 2021

Location

FAA Identifier: GDM
Lat/Long: 42-32-59.6000N 072-00-57.7000W
42-32.993333N 072-00.961667W
42.5498889,-72.0160278
(estimated)
Elevation: 954.1 ft. / 290.8 m (surveyed)
Variation: 14W (1970)
From city: 2 miles SW of GARDNER, MA
Time zone: UTC -4 (UTC -5 during Standard Time)
Zip code: 01440

Airport Operations

Airport use: Open to the public
Activation date: 04/1940
Control tower: no
ARTCC: BOSTON CENTER
FSS: BRIDGEPORT FLIGHT SERVICE STATION
NOTAMs facility: BDR (NOTAM-D service available)
Attendance: IREG
Wind indicator: yes
Segmented circle: no
Lights: ACTVT MIRL RWY 18/36 - CTAF.
Beacon: white-green (lighted land airport)
Operates sunset to sunrise.

Airport Communications

CTAF/UNICOM: 122.8
WX ASOS at FIT (11 nm E): 135.175 (978-343-9121)
WX ASOS at ORE (12 nm W): 135.675 (978-544-6774)
WX ASOS at AFN (15 nm N): 135.875 (603-532-6195)
WX ASOS at ORH (18 nm S): PHONE 508-795-7546
  • APCH/DEP SVC PRVDD BY BOSTON ARTCC ON FREQS 123.75/338.2 (GARDNER RCAG).

Nearby radio navigation aids

VOR radial/distance  VOR name  Freq  Var
GDMr097/1.9GARDNER VOR/DME110.6014W
EENr154/19.1KEENE VORTAC109.4014W
MHTr251/34.3MANCHESTER VOR/DME114.4015W
PUTr002/36.5PUTNAM VOR/DME117.4014W
BAFr067/38.8BARNES VORTAC113.0014W

Airport Services

Fuel available: 100LL
Parking: tiedowns
Airframe service: MINOR
Powerplant service: MINOR
Bottled oxygen: NONE
Bulk oxygen: NONE

Runway Information

Runway 18/36

Dimensions: 3000 x 75 ft. / 914 x 23 m
Surface: asphalt, in good condition
Weight bearing capacity: 
Single wheel: 25.0
Runway edge lights: medium intensity
RUNWAY 18  RUNWAY 36
Latitude: 42-33.231030N42-32.754425N
Longitude: 072-01.048385W072-00.873765W
Elevation: 954.1 ft.923.8 ft.
Traffic pattern: leftleft
Runway heading: 179 magnetic, 165 true359 magnetic, 345 true
Markings: basic, in good conditionbasic, in good condition
Runway end identifier lights: nono
Touchdown point: yes, no lightsyes, no lights
Obstructions: 150 ft. trees, 800 ft. from runway, 130 ft. right of centerline, 4:1 slope to clear9 ft. trees, 300 ft. from runway, 125 ft. both sides of centerline, 11:1 slope to clear

Airport Ownership and Management from official FAA records

Ownership: Publicly-owned
Owner: CITY OF GARDNER
95 PLEASANT STREET
GARDNER, MA 01440
Phone 978-630-4010
Manager: KEN BONK
GARDNER DPW 50 MANCA DRIVE
GARDNER, MA 01440
Phone 978-852-1331

Airport Operational Statistics

Aircraft based on the field: 13
Single engine airplanes: 13
    
Aircraft operations: avg 88/week *
76% transient general aviation
22% local general aviation
2% military
<1% air taxi
* for 12-month period ending 14 May 2020

Additional Remarks

NORDO ACFT ON AND INVOF ARPT.
WILDLIFE ON AND IN VCNTY OF ARPT.

Instrument Procedures

NOTE: All procedures below are presented as PDF files. If you need a reader for these files, you should download the free Adobe Reader.

NOT FOR NAVIGATION. Please procure official charts for flight.
FAA instrument procedures published for use from 15 July 2021 at 0901Z to 12 August 2021 at 0900z.

 
IAPs - Instrument Approach Procedures
RNAV (GPS)-B   download (203KB)
VOR-A   download (188KB)
NOTE: Special Take-Off Minimums/Departure Procedures apply   download (178KB)

Other nearby airports with instrument procedures:

KFIT - Fitchburg Municipal Airport (11 nm E)
KORE - Orange Municipal Airport (12 nm W)
KAFN - Jaffrey/Silver Ranch Airport (15 nm N)
KORH - Worcester Regional Airport (18 nm S)
0B5 - Turners Falls Airport (23 nm W)
 
Loc | Ops | Rwys | IFR | FBO | Links
Com | Nav | Svcs | Stats | Notes
Area around KGDM (Gardner Municipal Airport)
 
Road maps at: MapQuest Bing Google
 
Aerial photo
WARNING: Photo may not be current or correct
Aerial photo of KGDM (Gardner Municipal Airport)
Photo by Bruce Vinal, Aerial Perspectives
Photo taken 27-Aug-2010
looking North.

Do you have a better or more recent aerial photo of Gardner Municipal Airport that you would like to share? If so, please send us your photo.

 
Sectional chart

 
Airport distance calculator
Flying to Gardner Municipal Airport? Find the distance to fly.

From to KGDM

Sunrise and sunset
Times for 24-Jul-2021
 Local
(UTC-4)
 Zulu
(UTC)
Morning civil twilight05:0009:00
Sunrise05:3309:33
Sunset20:1600:16
Evening civil twilight20:4900:49

Current date and time
Zulu (UTC)  24-Jul-2021 12:25:18
Local (UTC-4)  24-Jul-2021 08:25:18
 
METAR
KFIT 
12nm E 
241152Z AUTO 33004KT 10SM CLR 19/13 A3013 RMK AO2 SLP200 T01890133 10189 20128 50006 TSNO
KORE 
12nm W 
241152Z AUTO 00000KT 10SM FEW002 14/14 A3015 RMK AO2 SLP209 70002 T01440139 10144 20122 51007
KAFN 
15nm N 
241152Z AUTO 00000KT 10SM CLR 16/14 A3015 RMK AO2 SLP211 70020 T01610139 10161 20117 51006
KORH 
18nm S 
241154Z 02005KT 10SM CLR 21/12 A3014 RMK AO2 SLP201 T02060122 10206 20156 51008
KEEN 
23nm NW 
241156Z AUTO 18003KT 10SM 14/13 A3015 RMK AO2 SLP213 T01440133 10144 20117 51005 $
TAF
KORH 
18nm S 
241120Z 2412/2512 36004KT P6SM SKC FM241400 04004KT P6SM FEW250 FM250400 20006KT P6SM SCT250 FM250900 20007KT 5SM BR VCSH BKN070
NOTAMs
Click for the latest NOTAMs
NOTAMs are issued by the DoD/FAA and will open in a separate window not controlled by AirNav.

 

 
 

FBO, Fuel Providers, and Aircraft Ground Support

  
 Business Name 
 
 Contact 
 
 Services / Description 
 
Fuel Prices
 
Comments
  
Gardner Aviation Services, Inc. 978-821-2803
no information available

If you are affiliated with Gardner Aviation Services, Inc. and would like to show here your services, contact info, web link, logo, and more, click here
100LL
FS $5.10 
 Updated 19-Jul-2021
 
   1 read write
FS=Full service
Update Fuel Prices
 

Would you like to see your business listed on this page?

 If your business provides an interesting product or service to pilots, flight crews, aircraft, or users of the Gardner Municipal Airport, you should consider listing it here.  To start the listing process, click on the button below
 
Add a business
 

Other Pages about Gardner Municipal Airport

Update a link
 
Copyright © AirNav, LLC. All rights reserved. Privacy Policy  Contact